sensor_id;sensor_type;location;lat;lon;timestamp;P1;durP1;ratioP1;P2;durP2;ratioP2
55633;SDS011;41504;53.162;6.788;2024-03-23T00:53:52;23.27;;;5.85;;
55633;SDS011;41504;53.162;6.788;2024-03-23T00:56:18;23.85;;;5.85;;
55633;SDS011;41504;53.162;6.788;2024-03-23T00:58:44;23.35;;;5.75;;
55633;SDS011;41504;53.162;6.788;2024-03-23T01:01:09;18.27;;;5.47;;
55633;SDS011;41504;53.162;6.788;2024-03-23T01:03:35;31.80;;;6.60;;
55633;SDS011;41504;53.162;6.788;2024-03-23T01:06:01;24.23;;;5.60;;
55633;SDS011;41504;53.162;6.788;2024-03-23T01:08:29;24.88;;;5.63;;
55633;SDS011;41504;53.162;6.788;2024-03-23T01:10:58;20.10;;;5.22;;
55633;SDS011;41504;53.162;6.788;2024-03-23T01:13:26;22.60;;;5.70;;
55633;SDS011;41504;53.162;6.788;2024-03-23T01:15:52;23.20;;;5.78;;
55633;SDS011;41504;53.162;6.788;2024-03-23T01:18:19;22.45;;;5.35;;
55633;SDS011;41504;53.162;6.788;2024-03-23T01:20:46;21.10;;;5.93;;
55633;SDS011;41504;53.162;6.788;2024-03-23T01:23:12;19.02;;;5.20;;
55633;SDS011;41504;53.162;6.788;2024-03-23T01:25:38;20.83;;;5.47;;
55633;SDS011;41504;53.162;6.788;2024-03-23T01:28:04;22.27;;;5.20;;
55633;SDS011;41504;53.162;6.788;2024-03-23T01:30:33;22.70;;;5.53;;
55633;SDS011;41504;53.162;6.788;2024-03-23T01:32:59;28.38;;;5.55;;
55633;SDS011;41504;53.162;6.788;2024-03-23T01:35:25;21.27;;;5.10;;
55633;SDS011;41504;53.162;6.788;2024-03-23T01:37:52;24.35;;;5.68;;
55633;SDS011;41504;53.162;6.788;2024-03-23T01:40:17;19.40;;;4.90;;
55633;SDS011;41504;53.162;6.788;2024-03-23T01:42:56;24.00;;;5.63;;
55633;SDS011;41504;53.162;6.788;2024-03-23T01:45:30;19.63;;;5.18;;
55633;SDS011;41504;53.162;6.788;2024-03-23T01:47:56;22.75;;;5.10;;
55633;SDS011;41504;53.162;6.788;2024-03-23T01:50:22;26.45;;;6.38;;
55633;SDS011;41504;53.162;6.788;2024-03-23T01:52:51;22.70;;;5.22;;
55633;SDS011;41504;53.162;6.788;2024-03-23T01:55:17;25.45;;;5.75;;
55633;SDS011;41504;53.162;6.788;2024-03-23T01:57:43;23.33;;;5.75;;
55633;SDS011;41504;53.162;6.788;2024-03-23T02:00:10;22.67;;;4.95;;
55633;SDS011;41504;53.162;6.788;2024-03-23T02:02:44;19.42;;;4.95;;
55633;SDS011;41504;53.162;6.788;2024-03-23T02:05:13;21.33;;;4.85;;
55633;SDS011;41504;53.162;6.788;2024-03-23T02:07:40;21.10;;;5.05;;
55633;SDS011;41504;53.162;6.788;2024-03-23T02:10:07;22.60;;;5.57;;
55633;SDS011;41504;53.162;6.788;2024-03-23T02:12:33;19.45;;;5.22;;
55633;SDS011;41504;53.162;6.788;2024-03-23T02:14:59;26.17;;;5.63;;
55633;SDS011;41504;53.162;6.788;2024-03-23T02:17:25;18.67;;;5.10;;
55633;SDS011;41504;53.162;6.788;2024-03-23T02:19:51;19.42;;;5.40;;
55633;SDS011;41504;53.162;6.788;2024-03-23T02:22:16;25.08;;;5.82;;
55633;SDS011;41504;53.162;6.788;2024-03-23T02:24:42;24.30;;;5.38;;
55633;SDS011;41504;53.162;6.788;2024-03-23T02:27:08;18.65;;;5.20;;
55633;SDS011;41504;53.162;6.788;2024-03-23T02:29:34;21.85;;;5.82;;
55633;SDS011;41504;53.162;6.788;2024-03-23T02:31:59;19.98;;;5.32;;
55633;SDS011;41504;53.162;6.788;2024-03-23T02:34:26;24.83;;;5.90;;
55633;SDS011;41504;53.162;6.788;2024-03-23T02:36:52;18.20;;;5.38;;
55633;SDS011;41504;53.162;6.788;2024-03-23T02:39:17;26.98;;;5.40;;
55633;SDS011;41504;53.162;6.788;2024-03-23T02:41:43;20.67;;;4.78;;
55633;SDS011;41504;53.162;6.788;2024-03-23T02:44:09;21.85;;;5.30;;
55633;SDS011;41504;53.162;6.788;2024-03-23T02:46:37;20.35;;;4.78;;
55633;SDS011;41504;53.162;6.788;2024-03-23T02:49:03;21.83;;;4.85;;
55633;SDS011;41504;53.162;6.788;2024-03-23T02:51:29;22.55;;;5.75;;
55633;SDS011;41504;53.162;6.788;2024-03-23T02:53:55;19.35;;;5.45;;
55633;SDS011;41504;53.162;6.788;2024-03-23T02:56:23;21.52;;;4.60;;
55633;SDS011;41504;53.162;6.788;2024-03-23T02:58:48;19.48;;;5.25;;
55633;SDS011;41504;53.162;6.788;2024-03-23T03:01:14;19.58;;;5.28;;
55633;SDS011;41504;53.162;6.788;2024-03-23T03:03:40;22.45;;;4.85;;
55633;SDS011;41504;53.162;6.788;2024-03-23T03:06:05;19.33;;;5.13;;
55633;SDS011;41504;53.162;6.788;2024-03-23T03:08:31;20.23;;;4.68;;
55633;SDS011;41504;53.162;6.788;2024-03-23T03:10:57;18.98;;;4.32;;
55633;SDS011;41504;53.162;6.788;2024-03-23T03:13:22;19.00;;;5.03;;
55633;SDS011;41504;53.162;6.788;2024-03-23T03:15:48;16.25;;;4.35;;
55633;SDS011;41504;53.162;6.788;2024-03-23T03:18:14;19.77;;;4.57;;
55633;SDS011;41504;53.162;6.788;2024-03-23T03:20:40;20.20;;;5.03;;
55633;SDS011;41504;53.162;6.788;2024-03-23T03:23:06;21.95;;;5.35;;
55633;SDS011;41504;53.162;6.788;2024-03-23T03:25:32;13.68;;;4.18;;
55633;SDS011;41504;53.162;6.788;2024-03-23T03:27:58;16.42;;;5.00;;
55633;SDS011;41504;53.162;6.788;2024-03-23T03:30:24;17.88;;;4.78;;
55633;SDS011;41504;53.162;6.788;2024-03-23T03:32:50;22.73;;;5.18;;
55633;SDS011;41504;53.162;6.788;2024-03-23T03:35:20;16.02;;;4.22;;
55633;SDS011;41504;53.162;6.788;2024-03-23T03:37:46;21.48;;;4.93;;
55633;SDS011;41504;53.162;6.788;2024-03-23T03:40:12;21.10;;;4.60;;
55633;SDS011;41504;53.162;6.788;2024-03-23T03:42:40;19.08;;;4.20;;
55633;SDS011;41504;53.162;6.788;2024-03-23T03:45:06;19.23;;;4.80;;
55633;SDS011;41504;53.162;6.788;2024-03-23T03:47:32;19.00;;;4.60;;
55633;SDS011;41504;53.162;6.788;2024-03-23T03:49:57;17.88;;;4.32;;
55633;SDS011;41504;53.162;6.788;2024-03-23T03:52:23;18.13;;;4.63;;
55633;SDS011;41504;53.162;6.788;2024-03-23T03:54:49;20.75;;;4.47;;
55633;SDS011;41504;53.162;6.788;2024-03-23T03:57:15;17.08;;;4.45;;
55633;SDS011;41504;53.162;6.788;2024-03-23T03:59:40;17.98;;;4.97;;
55633;SDS011;41504;53.162;6.788;2024-03-23T04:02:06;21.98;;;4.70;;
55633;SDS011;41504;53.162;6.788;2024-03-23T04:04:31;14.65;;;4.47;;
55633;SDS011;41504;53.162;6.788;2024-03-23T04:06:58;21.10;;;4.30;;
55633;SDS011;41504;53.162;6.788;2024-03-23T04:09:24;16.30;;;4.40;;
55633;SDS011;41504;53.162;6.788;2024-03-23T04:11:50;19.20;;;4.35;;
55633;SDS011;41504;53.162;6.788;2024-03-23T04:14:16;19.73;;;4.72;;
55633;SDS011;41504;53.162;6.788;2024-03-23T04:16:41;18.17;;;4.32;;
55633;SDS011;41504;53.162;6.788;2024-03-23T04:19:08;15.70;;;3.80;;
55633;SDS011;41504;53.162;6.788;2024-03-23T04:21:34;17.05;;;4.40;;
55633;SDS011;41504;53.162;6.788;2024-03-23T04:24:00;19.33;;;4.47;;
55633;SDS011;41504;53.162;6.788;2024-03-23T04:26:26;17.52;;;4.50;;
55633;SDS011;41504;53.162;6.788;2024-03-23T04:28:52;23.30;;;5.18;;
55633;SDS011;41504;53.162;6.788;2024-03-23T04:31:18;14.85;;;3.47;;
55633;SDS011;41504;53.162;6.788;2024-03-23T04:33:44;15.48;;;4.03;;
55633;SDS011;41504;53.162;6.788;2024-03-23T04:36:10;18.50;;;4.10;;
55633;SDS011;41504;53.162;6.788;2024-03-23T04:38:35;18.48;;;4.05;;
55633;SDS011;41504;53.162;6.788;2024-03-23T04:41:01;18.48;;;4.72;;
55633;SDS011;41504;53.162;6.788;2024-03-23T04:43:27;17.75;;;4.43;;
55633;SDS011;41504;53.162;6.788;2024-03-23T04:45:53;15.98;;;4.05;;
55633;SDS011;41504;53.162;6.788;2024-03-23T04:48:20;19.88;;;4.38;;
55633;SDS011;41504;53.162;6.788;2024-03-23T04:50:47;15.30;;;3.60;;
55633;SDS011;41504;53.162;6.788;2024-03-23T04:53:14;15.15;;;3.60;;
55633;SDS011;41504;53.162;6.788;2024-03-23T04:55:41;17.55;;;4.40;;
55633;SDS011;41504;53.162;6.788;2024-03-23T04:58:07;13.30;;;4.05;;
55633;SDS011;41504;53.162;6.788;2024-03-23T05:00:33;17.35;;;4.07;;
55633;SDS011;41504;53.162;6.788;2024-03-23T05:03:23;16.27;;;3.95;;
55633;SDS011;41504;53.162;6.788;2024-03-23T05:05:58;15.98;;;4.32;;
55633;SDS011;41504;53.162;6.788;2024-03-23T05:08:29;16.35;;;3.95;;
55633;SDS011;41504;53.162;6.788;2024-03-23T05:11:01;13.75;;;3.80;;
55633;SDS011;41504;53.162;6.788;2024-03-23T05:13:28;15.90;;;3.67;;
55633;SDS011;41504;53.162;6.788;2024-03-23T05:15:55;17.88;;;4.07;;
55633;SDS011;41504;53.162;6.788;2024-03-23T05:18:27;18.33;;;4.47;;
55633;SDS011;41504;53.162;6.788;2024-03-23T05:20:57;15.07;;;3.90;;
55633;SDS011;41504;53.162;6.788;2024-03-23T05:23:35;17.20;;;4.20;;
55633;SDS011;41504;53.162;6.788;2024-03-23T05:26:06;20.30;;;4.28;;
55633;SDS011;41504;53.162;6.788;2024-03-23T05:28:38;22.88;;;4.55;;
55633;SDS011;41504;53.162;6.788;2024-03-23T05:31:22;19.55;;;3.83;;
55633;SDS011;41504;53.162;6.788;2024-03-23T05:33:56;16.67;;;3.90;;
55633;SDS011;41504;53.162;6.788;2024-03-23T05:36:23;19.77;;;3.72;;
55633;SDS011;41504;53.162;6.788;2024-03-23T05:38:58;19.15;;;4.38;;
55633;SDS011;41504;53.162;6.788;2024-03-23T05:41:29;19.38;;;4.18;;
55633;SDS011;41504;53.162;6.788;2024-03-23T05:44:00;20.17;;;4.28;;
55633;SDS011;41504;53.162;6.788;2024-03-23T05:46:26;19.70;;;4.10;;
55633;SDS011;41504;53.162;6.788;2024-03-23T05:49:02;15.63;;;3.65;;
55633;SDS011;41504;53.162;6.788;2024-03-23T05:51:28;19.50;;;4.47;;
55633;SDS011;41504;53.162;6.788;2024-03-23T05:54:06;14.82;;;3.78;;
55633;SDS011;41504;53.162;6.788;2024-03-23T05:56:33;16.33;;;3.63;;
55633;SDS011;41504;53.162;6.788;2024-03-23T05:58:59;21.23;;;3.70;;
55633;SDS011;41504;53.162;6.788;2024-03-23T06:01:29;18.30;;;3.58;;
55633;SDS011;41504;53.162;6.788;2024-03-23T06:03:58;18.85;;;3.83;;
55633;SDS011;41504;53.162;6.788;2024-03-23T06:06:46;15.02;;;3.38;;
55633;SDS011;41504;53.162;6.788;2024-03-23T06:09:15;13.68;;;3.30;;
55633;SDS011;41504;53.162;6.788;2024-03-23T06:11:48;14.63;;;3.63;;
55633;SDS011;41504;53.162;6.788;2024-03-23T06:16:43;14.25;;;3.28;;
55633;SDS011;41504;53.162;6.788;2024-03-23T06:19:09;15.95;;;3.58;;
55633;SDS011;41504;53.162;6.788;2024-03-23T06:21:35;19.83;;;3.88;;
55633;SDS011;41504;53.162;6.788;2024-03-23T06:35:21;9.75;;;1.95;;
55633;SDS011;41504;53.162;6.788;2024-03-23T06:38:42;7.97;;;1.90;;
55633;SDS011;41504;53.162;6.788;2024-03-23T06:41:51;9.45;;;1.90;;
55633;SDS011;41504;53.162;6.788;2024-03-23T06:44:53;8.52;;;2.13;;
55633;SDS011;41504;53.162;6.788;2024-03-23T06:51:33;6.63;;;1.67;;
55633;SDS011;41504;53.162;6.788;2024-03-23T06:57:59;12.25;;;3.03;;
55633;SDS011;41504;53.162;6.788;2024-03-23T08:08:01;4.82;;;1.42;;
55633;SDS011;41504;53.162;6.788;2024-03-23T08:11:19;8.52;;;2.10;;
55633;SDS011;41504;53.162;6.788;2024-03-23T08:14:08;10.13;;;1.95;;
55633;SDS011;41504;53.162;6.788;2024-03-23T08:17:10;10.00;;;2.10;;
55633;SDS011;41504;53.162;6.788;2024-03-23T08:31:18;7.38;;;2.33;;
55633;SDS011;41504;53.162;6.788;2024-03-23T08:34:23;10.25;;;2.28;;
55633;SDS011;41504;53.162;6.788;2024-03-23T08:44:02;9.23;;;2.63;;
55633;SDS011;41504;53.162;6.788;2024-03-23T08:47:07;8.27;;;2.50;;
55633;SDS011;41504;53.162;6.788;2024-03-23T08:50:35;10.10;;;2.35;;
55633;SDS011;41504;53.162;6.788;2024-03-23T08:53:54;9.40;;;3.10;;
55633;SDS011;41504;53.162;6.788;2024-03-23T08:57:22;10.05;;;2.75;;
55633;SDS011;41504;53.162;6.788;2024-03-23T09:04:42;7.93;;;2.60;;
55633;SDS011;41504;53.162;6.788;2024-03-23T09:07:27;7.85;;;2.42;;
55633;SDS011;41504;53.162;6.788;2024-03-23T09:10:42;9.13;;;2.65;;
55633;SDS011;41504;53.162;6.788;2024-03-23T09:27:35;10.60;;;3.10;;
55633;SDS011;41504;53.162;6.788;2024-03-23T09:37:55;12.18;;;3.20;;
55633;SDS011;41504;53.162;6.788;2024-03-23T09:41:29;9.10;;;2.80;;
55633;SDS011;41504;53.162;6.788;2024-03-23T09:52:09;8.38;;;2.28;;
55633;SDS011;41504;53.162;6.788;2024-03-23T09:55:13;9.43;;;2.65;;
55633;SDS011;41504;53.162;6.788;2024-03-23T09:58:28;13.73;;;2.88;;
55633;SDS011;41504;53.162;6.788;2024-03-23T10:12:24;6.70;;;1.92;;
55633;SDS011;41504;53.162;6.788;2024-03-23T10:15:15;7.10;;;1.70;;
55633;SDS011;41504;53.162;6.788;2024-03-23T10:23:10;8.25;;;1.73;;
55633;SDS011;41504;53.162;6.788;2024-03-23T10:29:43;8.40;;;2.00;;
55633;SDS011;41504;53.162;6.788;2024-03-23T10:41:00;12.73;;;2.20;;
55633;SDS011;41504;53.162;6.788;2024-03-23T10:47:39;9.30;;;2.53;;
55633;SDS011;41504;53.162;6.788;2024-03-23T10:58:10;8.30;;;2.40;;
55633;SDS011;41504;53.162;6.788;2024-03-23T11:01:27;10.68;;;2.20;;
55633;SDS011;41504;53.162;6.788;2024-03-23T11:08:15;7.32;;;1.83;;
55633;SDS011;41504;53.162;6.788;2024-03-23T11:15:41;9.60;;;2.10;;
55633;SDS011;41504;53.162;6.788;2024-03-23T11:18:30;9.60;;;2.33;;
55633;SDS011;41504;53.162;6.788;2024-03-23T11:25:58;10.27;;;2.35;;
55633;SDS011;41504;53.162;6.788;2024-03-23T11:29:15;8.43;;;2.25;;
55633;SDS011;41504;53.162;6.788;2024-03-23T11:35:41;8.23;;;2.20;;
55633;SDS011;41504;53.162;6.788;2024-03-23T11:42:02;8.15;;;2.08;;
55633;SDS011;41504;53.162;6.788;2024-03-23T11:45:13;9.32;;;2.63;;
55633;SDS011;41504;53.162;6.788;2024-03-23T12:00:35;9.60;;;2.13;;
55633;SDS011;41504;53.162;6.788;2024-03-23T12:35:39;6.20;;;1.85;;
55633;SDS011;41504;53.162;6.788;2024-03-23T12:38:05;7.15;;;1.70;;
55633;SDS011;41504;53.162;6.788;2024-03-23T12:40:31;7.60;;;1.90;;
55633;SDS011;41504;53.162;6.788;2024-03-23T12:42:57;5.10;;;1.98;;
55633;SDS011;41504;53.162;6.788;2024-03-23T12:45:22;8.15;;;1.90;;
55633;SDS011;41504;53.162;6.788;2024-03-23T12:47:48;8.98;;;1.98;;
55633;SDS011;41504;53.162;6.788;2024-03-23T12:50:14;7.55;;;1.70;;
55633;SDS011;41504;53.162;6.788;2024-03-23T12:52:40;6.60;;;1.98;;
55633;SDS011;41504;53.162;6.788;2024-03-23T12:55:06;7.70;;;1.85;;
55633;SDS011;41504;53.162;6.788;2024-03-23T12:57:32;6.50;;;1.50;;
55633;SDS011;41504;53.162;6.788;2024-03-23T12:59:58;7.00;;;1.63;;
55633;SDS011;41504;53.162;6.788;2024-03-23T13:02:24;5.63;;;1.73;;
55633;SDS011;41504;53.162;6.788;2024-03-23T13:04:50;5.18;;;1.50;;
55633;SDS011;41504;53.162;6.788;2024-03-23T13:07:17;6.32;;;1.55;;
55633;SDS011;41504;53.162;6.788;2024-03-23T13:09:44;5.40;;;1.77;;
55633;SDS011;41504;53.162;6.788;2024-03-23T13:12:10;5.75;;;1.63;;
55633;SDS011;41504;53.162;6.788;2024-03-23T13:14:39;7.50;;;1.92;;
55633;SDS011;41504;53.162;6.788;2024-03-23T13:17:05;6.95;;;1.73;;
55633;SDS011;41504;53.162;6.788;2024-03-23T13:19:32;7.22;;;1.65;;
55633;SDS011;41504;53.162;6.788;2024-03-23T13:21:58;5.85;;;1.70;;
55633;SDS011;41504;53.162;6.788;2024-03-23T13:24:25;8.13;;;1.63;;
55633;SDS011;41504;53.162;6.788;2024-03-23T13:26:51;6.65;;;1.83;;
55633;SDS011;41504;53.162;6.788;2024-03-23T13:29:18;6.93;;;1.70;;
55633;SDS011;41504;53.162;6.788;2024-03-23T13:31:44;7.18;;;1.45;;
55633;SDS011;41504;53.162;6.788;2024-03-23T13:34:11;8.07;;;1.88;;
55633;SDS011;41504;53.162;6.788;2024-03-23T13:36:38;4.65;;;1.83;;
55633;SDS011;41504;53.162;6.788;2024-03-23T13:39:04;10.27;;;1.88;;
55633;SDS011;41504;53.162;6.788;2024-03-23T13:41:43;5.57;;;1.70;;
55633;SDS011;41504;53.162;6.788;2024-03-23T13:44:10;6.00;;;2.15;;
55633;SDS011;41504;53.162;6.788;2024-03-23T13:46:37;10.93;;;2.10;;
55633;SDS011;41504;53.162;6.788;2024-03-23T13:49:08;11.52;;;2.95;;
55633;SDS011;41504;53.162;6.788;2024-03-23T13:51:49;10.35;;;2.78;;
55633;SDS011;41504;53.162;6.788;2024-03-23T13:54:15;12.30;;;2.88;;
55633;SDS011;41504;53.162;6.788;2024-03-23T13:56:41;10.13;;;2.83;;
55633;SDS011;41504;53.162;6.788;2024-03-23T13:59:06;12.18;;;2.60;;
55633;SDS011;41504;53.162;6.788;2024-03-23T14:01:32;11.02;;;2.50;;
55633;SDS011;41504;53.162;6.788;2024-03-23T14:03:59;13.68;;;4.03;;
55633;SDS011;41504;53.162;6.788;2024-03-23T14:06:35;14.65;;;5.07;;
55633;SDS011;41504;53.162;6.788;2024-03-23T14:09:01;15.70;;;5.22;;
55633;SDS011;41504;53.162;6.788;2024-03-23T14:11:29;16.38;;;5.32;;
55633;SDS011;41504;53.162;6.788;2024-03-23T14:13:55;10.82;;;3.72;;
55633;SDS011;41504;53.162;6.788;2024-03-23T14:16:20;14.52;;;6.03;;
55633;SDS011;41504;53.162;6.788;2024-03-23T14:18:47;12.48;;;3.85;;
55633;SDS011;41504;53.162;6.788;2024-03-23T14:21:12;12.90;;;4.32;;
55633;SDS011;41504;53.162;6.788;2024-03-23T14:23:38;10.82;;;3.65;;
55633;SDS011;41504;53.162;6.788;2024-03-23T14:26:06;16.60;;;4.55;;
55633;SDS011;41504;53.162;6.788;2024-03-23T14:28:31;10.25;;;3.53;;
55633;SDS011;41504;53.162;6.788;2024-03-23T14:30:57;12.65;;;2.92;;
55633;SDS011;41504;53.162;6.788;2024-03-23T14:33:24;9.18;;;3.42;;
55633;SDS011;41504;53.162;6.788;2024-03-23T14:35:53;10.10;;;2.80;;
55633;SDS011;41504;53.162;6.788;2024-03-23T14:38:22;10.52;;;2.92;;
55633;SDS011;41504;53.162;6.788;2024-03-23T14:40:48;11.10;;;2.67;;
55633;SDS011;41504;53.162;6.788;2024-03-23T14:43:14;8.43;;;2.75;;
55633;SDS011;41504;53.162;6.788;2024-03-23T14:48:35;13.98;;;3.40;;
55633;SDS011;41504;53.162;6.788;2024-03-23T14:51:02;9.27;;;2.60;;
55633;SDS011;41504;53.162;6.788;2024-03-23T14:53:35;12.50;;;3.15;;
55633;SDS011;41504;53.162;6.788;2024-03-23T14:56:03;8.65;;;2.47;;
55633;SDS011;41504;53.162;6.788;2024-03-23T14:58:29;10.23;;;2.80;;
55633;SDS011;41504;53.162;6.788;2024-03-23T15:01:02;10.07;;;3.03;;
55633;SDS011;41504;53.162;6.788;2024-03-23T15:03:29;13.07;;;3.30;;
55633;SDS011;41504;53.162;6.788;2024-03-23T15:05:58;13.60;;;3.67;;
55633;SDS011;41504;53.162;6.788;2024-03-23T15:08:25;9.98;;;2.60;;
55633;SDS011;41504;53.162;6.788;2024-03-23T15:10:51;11.68;;;2.90;;
55633;SDS011;41504;53.162;6.788;2024-03-23T15:13:16;13.20;;;3.50;;
55633;SDS011;41504;53.162;6.788;2024-03-23T15:15:43;11.95;;;3.03;;
55633;SDS011;41504;53.162;6.788;2024-03-23T15:18:13;15.85;;;3.35;;
55633;SDS011;41504;53.162;6.788;2024-03-23T15:20:40;13.10;;;3.75;;
55633;SDS011;41504;53.162;6.788;2024-03-23T15:23:06;14.35;;;3.13;;
55633;SDS011;41504;53.162;6.788;2024-03-23T15:25:33;12.32;;;2.88;;
55633;SDS011;41504;53.162;6.788;2024-03-23T15:27:59;8.18;;;2.45;;
55633;SDS011;41504;53.162;6.788;2024-03-23T15:30:25;8.07;;;1.90;;
55633;SDS011;41504;53.162;6.788;2024-03-23T15:32:51;7.75;;;2.00;;
55633;SDS011;41504;53.162;6.788;2024-03-23T15:35:17;8.90;;;2.10;;
55633;SDS011;41504;53.162;6.788;2024-03-23T15:37:44;12.02;;;4.28;;
55633;SDS011;41504;53.162;6.788;2024-03-23T15:40:10;11.40;;;2.70;;
55633;SDS011;41504;53.162;6.788;2024-03-23T15:42:39;9.43;;;2.33;;
55633;SDS011;41504;53.162;6.788;2024-03-23T15:45:08;10.88;;;2.30;;
55633;SDS011;41504;53.162;6.788;2024-03-23T15:47:34;10.18;;;2.47;;
55633;SDS011;41504;53.162;6.788;2024-03-23T15:50:00;9.85;;;2.20;;
55633;SDS011;41504;53.162;6.788;2024-03-23T15:52:28;12.77;;;2.72;;
55633;SDS011;41504;53.162;6.788;2024-03-23T15:54:57;9.65;;;2.20;;
55633;SDS011;41504;53.162;6.788;2024-03-23T15:57:24;10.73;;;2.40;;
55633;SDS011;41504;53.162;6.788;2024-03-23T15:59:50;7.95;;;2.05;;
55633;SDS011;41504;53.162;6.788;2024-03-23T16:02:16;10.65;;;2.75;;
55633;SDS011;41504;53.162;6.788;2024-03-23T16:04:42;11.80;;;2.42;;
55633;SDS011;41504;53.162;6.788;2024-03-23T16:07:10;11.48;;;2.72;;
55633;SDS011;41504;53.162;6.788;2024-03-23T16:09:36;9.45;;;2.72;;
55633;SDS011;41504;53.162;6.788;2024-03-23T16:12:03;9.57;;;2.67;;
55633;SDS011;41504;53.162;6.788;2024-03-23T16:14:28;10.07;;;2.58;;
55633;SDS011;41504;53.162;6.788;2024-03-23T16:16:54;9.38;;;2.40;;
55633;SDS011;41504;53.162;6.788;2024-03-23T16:19:20;9.15;;;2.50;;
55633;SDS011;41504;53.162;6.788;2024-03-23T16:21:47;10.20;;;2.50;;
55633;SDS011;41504;53.162;6.788;2024-03-23T16:24:13;11.50;;;2.65;;
55633;SDS011;41504;53.162;6.788;2024-03-23T16:26:38;11.63;;;2.53;;
55633;SDS011;41504;53.162;6.788;2024-03-23T16:29:05;9.25;;;2.33;;
55633;SDS011;41504;53.162;6.788;2024-03-23T16:31:30;10.15;;;2.20;;
55633;SDS011;41504;53.162;6.788;2024-03-23T16:33:56;8.98;;;2.33;;
55633;SDS011;41504;53.162;6.788;2024-03-23T16:36:22;11.52;;;2.55;;
55633;SDS011;41504;53.162;6.788;2024-03-23T16:38:48;10.57;;;2.60;;
55633;SDS011;41504;53.162;6.788;2024-03-23T16:41:14;10.88;;;2.50;;
55633;SDS011;41504;53.162;6.788;2024-03-23T16:43:42;13.30;;;3.00;;
55633;SDS011;41504;53.162;6.788;2024-03-23T16:46:10;7.85;;;2.42;;
55633;SDS011;41504;53.162;6.788;2024-03-23T16:48:42;10.38;;;2.65;;
55633;SDS011;41504;53.162;6.788;2024-03-23T16:51:09;11.23;;;2.60;;
55633;SDS011;41504;53.162;6.788;2024-03-23T16:53:36;9.77;;;2.47;;
55633;SDS011;41504;53.162;6.788;2024-03-23T16:56:04;8.80;;;2.20;;
55633;SDS011;41504;53.162;6.788;2024-03-23T16:58:34;12.23;;;2.45;;
55633;SDS011;41504;53.162;6.788;2024-03-23T17:03:48;10.98;;;2.30;;
55633;SDS011;41504;53.162;6.788;2024-03-23T17:06:15;10.07;;;2.75;;
55633;SDS011;41504;53.162;6.788;2024-03-23T17:08:43;9.63;;;2.08;;
55633;SDS011;41504;53.162;6.788;2024-03-23T17:11:14;8.65;;;2.55;;
55633;SDS011;41504;53.162;6.788;2024-03-23T17:13:42;8.48;;;2.20;;
55633;SDS011;41504;53.162;6.788;2024-03-23T17:16:07;10.52;;;2.90;;
55633;SDS011;41504;53.162;6.788;2024-03-23T17:18:34;10.35;;;2.75;;
55633;SDS011;41504;53.162;6.788;2024-03-23T17:20:59;9.80;;;2.50;;
55633;SDS011;41504;53.162;6.788;2024-03-23T17:23:29;13.57;;;2.45;;
55633;SDS011;41504;53.162;6.788;2024-03-23T17:25:55;10.23;;;2.38;;
55633;SDS011;41504;53.162;6.788;2024-03-23T17:28:21;10.43;;;2.60;;
55633;SDS011;41504;53.162;6.788;2024-03-23T17:30:48;10.30;;;2.90;;
55633;SDS011;41504;53.162;6.788;2024-03-23T17:33:14;8.52;;;2.53;;
55633;SDS011;41504;53.162;6.788;2024-03-23T17:35:41;13.10;;;2.78;;
55633;SDS011;41504;53.162;6.788;2024-03-23T17:38:10;9.75;;;2.80;;
55633;SDS011;41504;53.162;6.788;2024-03-23T17:40:39;10.02;;;2.85;;
55633;SDS011;41504;53.162;6.788;2024-03-23T17:43:05;14.05;;;2.97;;
55633;SDS011;41504;53.162;6.788;2024-03-23T17:45:31;12.25;;;2.70;;
55633;SDS011;41504;53.162;6.788;2024-03-23T17:47:57;11.23;;;4.13;;
55633;SDS011;41504;53.162;6.788;2024-03-23T17:50:23;11.98;;;3.25;;
55633;SDS011;41504;53.162;6.788;2024-03-23T17:52:49;9.15;;;2.50;;
55633;SDS011;41504;53.162;6.788;2024-03-23T17:55:14;9.68;;;2.60;;
55633;SDS011;41504;53.162;6.788;2024-03-23T17:57:40;8.40;;;2.78;;
55633;SDS011;41504;53.162;6.788;2024-03-23T18:00:06;9.20;;;2.20;;
55633;SDS011;41504;53.162;6.788;2024-03-23T18:02:33;10.68;;;2.22;;
55633;SDS011;41504;53.162;6.788;2024-03-23T18:04:59;8.35;;;2.45;;
55633;SDS011;41504;53.162;6.788;2024-03-23T18:07:25;9.48;;;2.65;;
55633;SDS011;41504;53.162;6.788;2024-03-23T18:09:51;10.35;;;2.45;;
55633;SDS011;41504;53.162;6.788;2024-03-23T18:12:17;8.95;;;2.67;;
55633;SDS011;41504;53.162;6.788;2024-03-23T18:14:44;9.77;;;2.72;;
55633;SDS011;41504;53.162;6.788;2024-03-23T18:17:10;8.68;;;2.20;;
55633;SDS011;41504;53.162;6.788;2024-03-23T18:19:36;9.55;;;2.47;;
55633;SDS011;41504;53.162;6.788;2024-03-23T18:22:02;11.60;;;2.83;;
55633;SDS011;41504;53.162;6.788;2024-03-23T18:24:28;10.27;;;2.53;;
55633;SDS011;41504;53.162;6.788;2024-03-23T18:26:53;8.73;;;2.40;;
55633;SDS011;41504;53.162;6.788;2024-03-23T18:29:20;7.38;;;1.90;;
55633;SDS011;41504;53.162;6.788;2024-03-23T18:31:46;11.07;;;2.47;;
55633;SDS011;41504;53.162;6.788;2024-03-23T18:34:12;10.07;;;2.63;;
55633;SDS011;41504;53.162;6.788;2024-03-23T18:36:38;10.68;;;2.42;;
55633;SDS011;41504;53.162;6.788;2024-03-23T18:39:03;8.75;;;2.20;;
55633;SDS011;41504;53.162;6.788;2024-03-23T18:41:30;8.63;;;1.83;;
55633;SDS011;41504;53.162;6.788;2024-03-23T18:43:56;8.18;;;2.10;;
55633;SDS011;41504;53.162;6.788;2024-03-23T18:46:23;8.32;;;2.28;;
55633;SDS011;41504;53.162;6.788;2024-03-23T18:48:49;6.75;;;2.13;;
55633;SDS011;41504;53.162;6.788;2024-03-23T18:51:15;6.55;;;1.88;;
55633;SDS011;41504;53.162;6.788;2024-03-23T18:53:41;9.85;;;2.83;;
55633;SDS011;41504;53.162;6.788;2024-03-23T18:56:07;9.00;;;2.25;;
55633;SDS011;41504;53.162;6.788;2024-03-23T18:58:33;7.68;;;2.08;;
55633;SDS011;41504;53.162;6.788;2024-03-23T19:01:04;8.48;;;2.75;;
55633;SDS011;41504;53.162;6.788;2024-03-23T19:03:31;7.95;;;2.00;;
55633;SDS011;41504;53.162;6.788;2024-03-23T19:06:00;6.47;;;2.22;;
55633;SDS011;41504;53.162;6.788;2024-03-23T19:08:26;8.02;;;2.20;;
55633;SDS011;41504;53.162;6.788;2024-03-23T19:10:56;7.97;;;2.17;;
55633;SDS011;41504;53.162;6.788;2024-03-23T19:13:24;7.55;;;1.80;;
55633;SDS011;41504;53.162;6.788;2024-03-23T19:15:50;8.07;;;2.00;;
55633;SDS011;41504;53.162;6.788;2024-03-23T19:18:16;6.20;;;2.00;;
55633;SDS011;41504;53.162;6.788;2024-03-23T19:20:42;7.25;;;2.30;;
55633;SDS011;41504;53.162;6.788;2024-03-23T19:23:08;6.50;;;2.30;;
55633;SDS011;41504;53.162;6.788;2024-03-23T19:25:35;10.02;;;2.33;;
55633;SDS011;41504;53.162;6.788;2024-03-23T19:28:01;4.85;;;1.88;;
55633;SDS011;41504;53.162;6.788;2024-03-23T19:30:28;10.32;;;2.38;;
55633;SDS011;41504;53.162;6.788;2024-03-23T19:32:55;7.05;;;2.20;;
55633;SDS011;41504;53.162;6.788;2024-03-23T19:35:22;10.43;;;4.28;;
55633;SDS011;41504;53.162;6.788;2024-03-23T19:37:48;11.98;;;5.40;;
55633;SDS011;41504;53.162;6.788;2024-03-23T19:40:14;8.70;;;2.38;;
55633;SDS011;41504;53.162;6.788;2024-03-23T19:42:40;8.32;;;2.83;;
55633;SDS011;41504;53.162;6.788;2024-03-23T19:45:06;9.27;;;2.75;;
55633;SDS011;41504;53.162;6.788;2024-03-23T19:47:32;9.27;;;2.67;;
55633;SDS011;41504;53.162;6.788;2024-03-23T19:49:58;8.70;;;2.42;;
55633;SDS011;41504;53.162;6.788;2024-03-23T19:52:24;5.85;;;2.30;;
55633;SDS011;41504;53.162;6.788;2024-03-23T19:54:50;7.57;;;2.60;;
55633;SDS011;41504;53.162;6.788;2024-03-23T19:57:15;9.32;;;2.67;;
55633;SDS011;41504;53.162;6.788;2024-03-23T19:59:41;9.88;;;2.30;;
55633;SDS011;41504;53.162;6.788;2024-03-23T20:02:08;7.57;;;2.65;;
55633;SDS011;41504;53.162;6.788;2024-03-23T20:04:33;6.38;;;2.22;;